Time;durP1;ratioP1;P1;durP2;ratioP2;P2;SDS_P1;SDS_P2;PMS_P1;PMS_P2;Temp;Humidity;BMP_temperature;BMP_pressure;BME280_temperature;BME280_humidity;BME280_pressure;Samples;Min_cycle;Max_cycle;Signal;HPM_P1;HPM_P2
2022/04/27 00:01:44;;;;;;;9.97;7.27;;;9.10;99.90;;;;;;5089917;28;20941;-76
2022/04/27 00:04:10;;;;;;;9.68;7.10;;;9.10;99.90;;;;;;5088117;28;20406;-76
2022/04/27 00:06:36;;;;;;;10.60;7.20;;;9.00;99.90;;;;;;5089733;28;20907;-76
2022/04/27 00:09:03;;;;;;;10.87;7.93;;;9.00;99.90;;;;;;5051901;28;20431;-76
2022/04/27 00:11:29;;;;;;;12.52;7.43;;;8.90;99.90;;;;;;5006481;28;20496;-76
2022/04/27 00:13:56;;;;;;;9.83;7.30;;;8.90;99.90;;;;;;5006662;28;20492;-76
2022/04/27 00:16:22;;;;;;;10.50;7.80;;;8.90;99.90;;;;;;5006519;28;20478;-76
2022/04/27 00:18:48;;;;;;;10.82;7.78;;;8.80;99.90;;;;;;5006442;28;20849;-76
2022/04/27 00:21:14;;;;;;;11.82;8.23;;;8.80;99.90;;;;;;5006360;28;20762;-76
2022/04/27 00:23:40;;;;;;;12.82;8.48;;;8.80;99.90;;;;;;5006702;28;20434;-76
2022/04/27 00:26:06;;;;;;;10.83;8.00;;;8.80;99.90;;;;;;5006355;28;20405;-76
2022/04/27 00:28:32;;;;;;;12.20;7.70;;;8.80;99.90;;;;;;5006740;28;20462;-76
2022/04/27 00:30:57;;;;;;;10.63;8.00;;;8.70;99.90;;;;;;5005165;28;20413;-76
2022/04/27 00:33:23;;;;;;;13.15;8.77;;;8.70;99.90;;;;;;5021495;28;20416;-75
2022/04/27 00:35:48;;;;;;;11.27;7.90;;;8.80;99.90;;;;;;5006621;28;20397;-76
2022/04/27 00:38:14;;;;;;;11.48;7.70;;;8.80;99.90;;;;;;5006248;28;20739;-76
2022/04/27 00:40:40;;;;;;;10.23;7.10;;;8.80;99.90;;;;;;5005079;28;20441;-76
2022/04/27 00:43:05;;;;;;;11.52;7.25;;;8.80;99.90;;;;;;5041507;28;20398;-76
2022/04/27 00:45:31;;;;;;;11.73;7.10;;;8.90;99.90;;;;;;5037587;28;20405;-75
2022/04/27 00:47:56;;;;;;;12.90;7.47;;;8.80;99.90;;;;;;5069303;28;20418;-76
2022/04/27 00:50:22;;;;;;;9.30;7.07;;;8.90;99.90;;;;;;4996062;28;20421;-76
2022/04/27 00:52:49;;;;;;;11.25;7.30;;;8.80;99.90;;;;;;5088350;28;20441;-76
2022/04/27 00:55:15;;;;;;;10.02;7.60;;;8.80;99.90;;;;;;5050120;28;20465;-76
2022/04/27 00:57:46;;;;;;;11.05;7.50;;;8.80;99.90;;;;;;4985744;28;20462;-75
2022/04/27 01:00:12;;;;;;;11.77;7.13;;;8.80;99.90;;;;;;4985484;28;20406;-76
2022/04/27 01:02:38;;;;;;;9.68;7.05;;;8.80;99.90;;;;;;4985981;28;20473;-76
2022/04/27 01:05:09;;;;;;;11.10;6.87;;;8.80;99.90;;;;;;5076889;28;20390;-76
2022/04/27 01:07:36;;;;;;;13.20;7.50;;;8.70;99.90;;;;;;5054211;28;20423;-75
2022/04/27 01:10:02;;;;;;;11.20;7.43;;;8.70;99.90;;;;;;5042429;28;20393;-76
2022/04/27 01:12:28;;;;;;;11.80;7.38;;;8.70;99.90;;;;;;5034131;28;20415;-76
2022/04/27 01:14:53;;;;;;;10.82;7.40;;;8.80;99.90;;;;;;4984427;28;20414;-76
2022/04/27 01:17:21;;;;;;;10.93;7.67;;;8.70;99.90;;;;;;5061976;28;20425;-76
2022/04/27 01:19:47;;;;;;;11.55;7.47;;;8.70;99.90;;;;;;5086049;28;20493;-76
2022/04/27 01:22:13;;;;;;;10.48;7.20;;;8.70;99.90;;;;;;5087313;28;20480;-76
2022/04/27 01:24:40;;;;;;;9.80;7.83;;;8.70;99.90;;;;;;5060582;28;20410;-76
2022/04/27 01:27:06;;;;;;;12.00;7.75;;;8.70;99.90;;;;;;4985329;28;20466;-76
2022/04/27 01:29:32;;;;;;;11.90;7.47;;;8.70;99.90;;;;;;4984103;28;20480;-76
2022/04/27 01:32:00;;;;;;;12.32;7.82;;;8.70;99.90;;;;;;4985018;28;20411;-76
2022/04/27 01:34:26;;;;;;;11.17;7.47;;;8.70;99.90;;;;;;4995474;28;20489;-76
2022/04/27 01:36:54;;;;;;;11.18;7.80;;;8.70;99.90;;;;;;5041849;28;20555;-76
2022/04/27 01:39:23;;;;;;;12.57;8.02;;;8.70;99.90;;;;;;5043151;28;20413;-76
2022/04/27 01:41:49;;;;;;;11.15;8.27;;;8.70;99.90;;;;;;5087618;28;20456;-76
2022/04/27 01:44:15;;;;;;;12.82;8.02;;;8.70;99.90;;;;;;5026261;28;20529;-76
2022/04/27 01:46:41;;;;;;;12.07;7.75;;;8.70;99.90;;;;;;5002709;28;20434;-76
2022/04/27 01:49:07;;;;;;;10.93;8.15;;;8.70;99.90;;;;;;5003602;28;20970;-76
2022/04/27 01:54:16;;;;;;;12.07;8.00;;;8.70;99.90;;;;;;5086024;28;20414;-76
2022/04/27 01:56:48;;;;;;;12.20;8.07;;;8.70;99.90;;;;;;5003438;28;20662;-76
2022/04/27 01:59:14;;;;;;;10.18;8.00;;;8.70;99.90;;;;;;5005615;28;20427;-76
2022/04/27 02:01:40;;;;;;;13.40;8.50;;;8.70;99.90;;;;;;5086146;28;20786;-76
2022/04/27 02:04:06;;;;;;;10.82;8.27;;;8.80;99.90;;;;;;5062248;28;20841;-76
2022/04/27 02:06:35;;;;;;;11.85;7.97;;;8.80;99.90;;;;;;5004364;28;20411;-76
2022/04/27 02:09:05;;;;;;;13.25;8.35;;;8.70;99.90;;;;;;5003804;28;20420;-76
2022/04/27 02:11:34;;;;;;;14.33;8.17;;;8.80;99.90;;;;;;5003921;28;20501;-76
2022/04/27 02:14:00;;;;;;;11.38;8.10;;;8.80;99.90;;;;;;5079039;28;20398;-76
2022/04/27 02:16:28;;;;;;;13.45;8.85;;;8.80;99.90;;;;;;5090511;28;20510;-76
2022/04/27 02:18:55;;;;;;;10.45;7.80;;;8.90;99.90;;;;;;5090753;28;20398;-76
2022/04/27 02:21:21;;;;;;;11.27;8.70;;;8.80;99.90;;;;;;5091157;28;20426;-76
2022/04/27 02:23:49;;;;;;;13.30;8.73;;;8.90;99.90;;;;;;5090984;28;20405;-75
2022/04/27 02:26:15;;;;;;;10.45;7.47;;;8.90;99.90;;;;;;5072583;28;20500;-75
2022/04/27 02:28:41;;;;;;;12.60;8.65;;;8.90;99.90;;;;;;5090156;28;20409;-75
2022/04/27 02:31:07;;;;;;;13.07;8.35;;;8.90;99.90;;;;;;5015758;28;20413;-75
2022/04/27 02:33:33;;;;;;;13.68;8.38;;;8.90;99.90;;;;;;5005794;28;20428;-75
2022/04/27 02:35:59;;;;;;;11.18;8.35;;;8.90;99.90;;;;;;5007400;28;20401;-75
2022/04/27 02:38:24;;;;;;;13.60;8.20;;;8.90;99.90;;;;;;5008448;28;20413;-74
2022/04/27 02:40:50;;;;;;;12.10;7.67;;;8.90;99.90;;;;;;5052645;28;20937;-75
2022/04/27 02:43:16;;;;;;;12.27;8.30;;;9.00;99.90;;;;;;4993077;28;20422;-75
2022/04/27 02:45:42;;;;;;;12.85;8.35;;;9.00;99.90;;;;;;4988749;28;20445;-75
2022/04/27 02:48:08;;;;;;;13.43;8.48;;;9.00;99.90;;;;;;4987472;28;20442;-75
2022/04/27 02:53:19;;;;;;;12.85;8.95;;;9.00;99.90;;;;;;5088860;28;20914;-76
2022/04/27 02:55:44;;;;;;;11.13;7.55;;;9.00;99.90;;;;;;5080736;28;20459;-76
2022/04/27 02:58:10;;;;;;;10.17;7.70;;;9.00;99.90;;;;;;5072540;28;20458;-76
2022/04/27 03:00:36;;;;;;;12.85;7.72;;;9.00;99.90;;;;;;5054814;28;20413;-76
2022/04/27 03:03:02;;;;;;;9.70;7.63;;;9.00;99.90;;;;;;5006533;28;20511;-76
2022/04/27 03:05:28;;;;;;;12.25;7.57;;;9.00;99.90;;;;;;5006368;28;20466;-76
2022/04/27 03:07:53;;;;;;;13.65;8.13;;;9.00;99.90;;;;;;5005010;28;20413;-76
2022/04/27 03:10:20;;;;;;;13.10;8.17;;;9.00;99.90;;;;;;4990498;28;20411;-76
2022/04/27 03:12:45;;;;;;;12.73;8.30;;;9.00;99.90;;;;;;4985626;28;20453;-76
2022/04/27 03:15:11;;;;;;;11.55;8.60;;;8.90;99.90;;;;;;4986970;28;20923;-76
2022/04/27 03:17:37;;;;;;;11.38;8.30;;;9.00;99.90;;;;;;5013920;28;20439;-76
2022/04/27 03:20:04;;;;;;;11.27;8.33;;;8.90;99.90;;;;;;4987536;28;20467;-76
2022/04/27 03:22:30;;;;;;;13.32;8.00;;;8.90;99.90;;;;;;5034837;28;20421;-75
2022/04/27 03:24:55;;;;;;;13.63;8.35;;;8.90;99.90;;;;;;5013499;28;20725;-76
2022/04/27 03:27:21;;;;;;;11.80;8.27;;;8.90;99.90;;;;;;5090406;28;20402;-76
2022/04/27 03:29:46;;;;;;;12.63;8.38;;;8.90;99.90;;;;;;5038090;28;20497;-76
2022/04/27 03:32:12;;;;;;;12.43;8.53;;;8.90;99.90;;;;;;4986806;28;20415;-76
2022/04/27 03:34:38;;;;;;;11.23;8.35;;;8.90;99.90;;;;;;4987239;28;20903;-76
2022/04/27 03:37:04;;;;;;;14.27;8.47;;;8.90;99.90;;;;;;4986745;28;20437;-76
2022/04/27 03:39:29;;;;;;;10.93;7.88;;;8.90;99.90;;;;;;5088578;28;20838;-76
2022/04/27 03:41:57;;;;;;;11.25;8.15;;;8.90;99.90;;;;;;5087882;28;20402;-76
2022/04/27 03:44:22;;;;;;;14.38;8.15;;;8.90;99.90;;;;;;5089515;28;20402;-76
2022/04/27 03:46:48;;;;;;;12.18;8.45;;;8.90;99.90;;;;;;5088374;28;20485;-76
2022/04/27 03:49:14;;;;;;;11.63;8.23;;;8.90;99.90;;;;;;5088795;28;20405;-76
2022/04/27 03:51:39;;;;;;;10.82;7.72;;;8.90;99.90;;;;;;5087960;28;20533;-76
2022/04/27 03:54:05;;;;;;;15.03;8.70;;;8.90;99.90;;;;;;5089417;28;20446;-76
2022/04/27 03:56:30;;;;;;;11.70;8.10;;;8.90;99.90;;;;;;4988157;28;20443;-76
2022/04/27 03:58:57;;;;;;;13.03;9.03;;;8.90;99.90;;;;;;5057459;28;20775;-76
2022/04/27 04:01:23;;;;;;;11.93;7.97;;;8.80;99.90;;;;;;5087339;28;20462;-76
2022/04/27 04:03:49;;;;;;;10.13;8.20;;;8.90;99.90;;;;;;5089044;28;20454;-76
2022/04/27 04:06:14;;;;;;;11.00;8.18;;;8.90;99.90;;;;;;5081772;28;20394;-76
2022/04/27 04:08:40;;;;;;;12.97;8.73;;;8.80;99.90;;;;;;5006158;28;20424;-76
2022/04/27 04:11:05;;;;;;;11.57;7.97;;;8.90;99.90;;;;;;5026507;28;20421;-76
2022/04/27 04:13:31;;;;;;;12.57;7.63;;;8.90;99.90;;;;;;5058841;28;20414;-76
2022/04/27 04:15:57;;;;;;;11.33;7.97;;;8.90;99.90;;;;;;5029908;28;20525;-76
2022/04/27 04:18:22;;;;;;;9.23;8.15;;;8.90;99.90;;;;;;5009374;28;20508;-76
2022/04/27 04:20:48;;;;;;;12.23;8.40;;;8.90;99.90;;;;;;5004560;28;20401;-76
2022/04/27 04:23:13;;;;;;;13.20;8.35;;;8.90;99.90;;;;;;5005361;28;20412;-76
2022/04/27 04:28:32;;;;;;;12.13;8.30;;;8.90;99.90;;;;;;5031796;28;20771;-76
2022/04/27 04:31:03;;;;;;;12.48;8.32;;;8.90;99.90;;;;;;5019706;28;20466;-76
2022/04/27 04:33:28;;;;;;;11.80;7.77;;;8.90;99.90;;;;;;4989280;28;20419;-76
2022/04/27 04:35:55;;;;;;;10.23;7.40;;;8.90;99.90;;;;;;5076938;28;20418;-76
2022/04/27 04:38:21;;;;;;;10.07;7.78;;;8.90;99.90;;;;;;5034342;28;20446;-76
2022/04/27 04:40:47;;;;;;;14.10;7.63;;;8.90;99.90;;;;;;5048254;28;20767;-76
2022/04/27 04:43:12;;;;;;;12.13;7.37;;;8.90;99.90;;;;;;5041443;28;20515;-76
2022/04/27 04:45:38;;;;;;;10.43;6.53;;;8.90;99.90;;;;;;5060827;28;20417;-76
2022/04/27 04:48:04;;;;;;;12.70;6.23;;;8.90;99.90;;;;;;5030669;28;20421;-76
2022/04/27 04:50:30;;;;;;;10.50;5.97;;;8.90;99.90;;;;;;5028489;28;20444;-76
2022/04/27 04:52:55;;;;;;;9.05;6.10;;;9.00;99.90;;;;;;5086176;28;20492;-76
2022/04/27 04:55:21;;;;;;;7.07;5.40;;;9.00;99.90;;;;;;5018593;28;20414;-76
2022/04/27 04:57:46;;;;;;;9.20;4.60;;;9.00;99.90;;;;;;4984460;28;21062;-76
2022/04/27 05:00:12;;;;;;;9.30;6.13;;;9.00;99.90;;;;;;4984741;28;20419;-76
2022/04/27 05:02:38;;;;;;;9.50;6.40;;;9.00;99.90;;;;;;4999995;28;20405;-76
2022/04/27 05:05:04;;;;;;;7.23;4.40;;;9.00;99.90;;;;;;5087365;28;20542;-76
2022/04/27 05:07:33;;;;;;;6.63;4.55;;;9.10;99.90;;;;;;5087805;28;20885;-76
2022/04/27 05:10:00;;;;;;;7.03;4.32;;;9.10;99.90;;;;;;5086686;28;20899;-76
2022/04/27 05:12:25;;;;;;;8.23;3.70;;;9.10;99.90;;;;;;5088063;28;20413;-76
2022/04/27 05:14:51;;;;;;;6.45;4.20;;;9.10;99.90;;;;;;5087728;28;20485;-76
2022/04/27 05:17:17;;;;;;;8.27;4.30;;;9.20;99.90;;;;;;5076122;28;20788;-76
2022/04/27 05:19:43;;;;;;;8.93;2.95;;;9.30;99.90;;;;;;5076675;28;21000;-76
2022/04/27 05:22:08;;;;;;;4.38;3.00;;;9.30;99.90;;;;;;5064129;28;20410;-76
2022/04/27 05:24:34;;;;;;;6.00;3.10;;;9.30;99.90;;;;;;5041531;28;20457;-76
2022/04/27 05:27:00;;;;;;;6.60;3.30;;;9.30;99.90;;;;;;5085618;28;20402;-76
2022/04/27 05:32:10;;;;;;;7.50;2.35;;;9.40;99.90;;;;;;5085902;28;20417;-76
2022/04/27 05:34:36;;;;;;;5.20;2.13;;;9.40;99.90;;;;;;5086276;28;20992;-76
2022/04/27 05:37:02;;;;;;;5.68;2.53;;;9.50;99.90;;;;;;5085473;28;20458;-76
2022/04/27 05:39:28;;;;;;;4.68;2.47;;;9.40;99.90;;;;;;5087126;28;20467;-76
2022/04/27 05:41:53;;;;;;;5.23;2.40;;;9.50;99.90;;;;;;5087194;28;20460;-76
2022/04/27 05:44:21;;;;;;;5.93;2.70;;;9.50;99.90;;;;;;5052282;28;20417;-76
2022/04/27 05:46:47;;;;;;;6.35;2.50;;;9.50;99.90;;;;;;5019384;28;20408;-76
2022/04/27 05:49:12;;;;;;;4.60;2.25;;;9.50;99.90;;;;;;5021538;28;20428;-75
2022/04/27 05:51:38;;;;;;;6.33;2.47;;;9.50;99.90;;;;;;5031595;28;20467;-75
2022/04/27 05:54:04;;;;;;;6.43;2.30;;;9.60;99.90;;;;;;5064578;28;20424;-75
2022/04/27 05:56:30;;;;;;;3.65;2.35;;;9.60;99.90;;;;;;4987652;28;20918;-74
2022/04/27 05:58:55;;;;;;;5.23;2.50;;;9.60;99.90;;;;;;5063243;28;20429;-75
2022/04/27 06:01:21;;;;;;;4.07;2.50;;;9.60;99.90;;;;;;5087784;28;20545;-75
2022/04/27 06:03:46;;;;;;;5.97;2.20;;;9.70;99.90;;;;;;5086726;28;20406;-75
2022/04/27 06:06:12;;;;;;;3.58;1.70;;;9.70;99.90;;;;;;5087011;28;20393;-75
2022/04/27 06:08:38;;;;;;;3.72;1.60;;;9.80;99.90;;;;;;5082978;28;20878;-75
2022/04/27 06:11:03;;;;;;;4.33;1.20;;;9.70;99.90;;;;;;5086153;28;20394;-75
2022/04/27 06:13:31;;;;;;;4.65;1.30;;;9.80;99.70;;;;;;5086957;28;20410;-75
2022/04/27 06:15:57;;;;;;;3.75;1.30;;;9.80;99.80;;;;;;5102506;28;20437;-75
2022/04/27 06:18:22;;;;;;;4.47;1.40;;;9.80;99.50;;;;;;5008617;28;20438;-74
2022/04/27 06:20:48;;;;;;;3.40;0.83;;;9.80;99.30;;;;;;4984054;28;20403;-76
2022/04/27 06:23:14;;;;;;;3.30;0.90;;;9.90;98.60;;;;;;4985499;28;20417;-76
2022/04/27 06:25:41;;;;;;;2.77;0.90;;;10.00;98.20;;;;;;5003329;28;20414;-76
2022/04/27 06:28:07;;;;;;;4.15;1.10;;;10.10;97.60;;;;;;4978298;28;20407;-76
2022/04/27 06:30:35;;;;;;;4.65;1.10;;;10.10;98.10;;;;;;4983539;28;20411;-76
2022/04/27 06:33:01;;;;;;;4.35;1.15;;;10.20;96.90;;;;;;4981829;28;20414;-76
2022/04/27 06:35:27;;;;;;;4.73;0.87;;;10.20;96.70;;;;;;4983164;28;20938;-76
2022/04/27 06:37:52;;;;;;;3.00;1.00;;;10.30;96.50;;;;;;4984192;28;20430;-76
2022/04/27 06:40:18;;;;;;;5.10;1.05;;;10.30;96.00;;;;;;5002215;28;20425;-75
2022/04/27 06:42:44;;;;;;;3.30;1.07;;;10.40;95.70;;;;;;5034615;28;20419;-76
2022/04/27 06:45:11;;;;;;;3.47;1.20;;;10.40;95.10;;;;;;5063593;28;20406;-76
2022/04/27 06:47:36;;;;;;;5.40;1.20;;;10.40;94.90;;;;;;4996666;28;20470;-76
2022/04/27 06:50:02;;;;;;;4.38;1.23;;;10.40;94.70;;;;;;4986330;28;20498;-76
2022/04/27 06:52:28;;;;;;;4.68;1.05;;;10.40;94.50;;;;;;5013030;28;20400;-76
2022/04/27 06:54:53;;;;;;;4.43;0.90;;;10.40;94.80;;;;;;4997084;28;20421;-76
2022/04/27 06:57:19;;;;;;;3.95;1.08;;;10.50;94.50;;;;;;5003834;28;20486;-76
2022/04/27 06:59:44;;;;;;;3.97;1.10;;;10.60;94.70;;;;;;5006991;28;20469;-76
2022/04/27 07:02:12;;;;;;;5.38;0.95;;;10.60;94.60;;;;;;5006426;28;20413;-76
2022/04/27 07:04:40;;;;;;;5.10;1.10;;;10.70;94.00;;;;;;4987427;28;20841;-76
2022/04/27 07:07:07;;;;;;;4.07;1.27;;;10.70;93.60;;;;;;5054201;28;20432;-76
2022/04/27 07:09:33;;;;;;;3.93;1.00;;;10.70;93.50;;;;;;4966886;28;20452;-76
2022/04/27 07:11:59;;;;;;;4.82;0.90;;;10.80;93.50;;;;;;4988388;28;20437;-76
2022/04/27 07:14:25;;;;;;;4.57;1.13;;;10.80;92.50;;;;;;4989964;28;20420;-76
2022/04/27 07:16:51;;;;;;;3.53;1.02;;;10.80;92.70;;;;;;5006826;28;20433;-76
2022/04/27 07:19:17;;;;;;;2.90;1.07;;;10.80;93.00;;;;;;5002591;28;20421;-76
2022/04/27 07:21:43;;;;;;;4.28;1.10;;;10.90;92.60;;;;;;5010183;28;20459;-76
2022/04/27 07:24:09;;;;;;;3.67;1.10;;;10.90;92.50;;;;;;5020189;28;20489;-76
2022/04/27 07:26:34;;;;;;;2.83;0.90;;;10.90;92.80;;;;;;5027477;28;20524;-75
2022/04/27 07:29:00;;;;;;;4.20;1.08;;;10.90;92.60;;;;;;5006844;28;20413;-75
2022/04/27 07:31:26;;;;;;;6.67;0.90;;;10.90;91.90;;;;;;4994137;28;20427;-75
2022/04/27 07:33:52;;;;;;;3.42;0.95;;;10.90;92.00;;;;;;4998130;28;20491;-75
2022/04/27 07:36:18;;;;;;;4.38;1.20;;;11.00;92.20;;;;;;4987109;28;20454;-76
2022/04/27 07:38:44;;;;;;;3.70;1.05;;;11.00;92.00;;;;;;4987534;28;20413;-75
2022/04/27 07:41:10;;;;;;;3.80;1.27;;;11.00;91.80;;;;;;4985813;28;20823;-75
2022/04/27 07:43:35;;;;;;;4.80;1.10;;;11.00;92.40;;;;;;4993198;28;20417;-75
2022/04/27 07:46:03;;;;;;;4.43;1.05;;;11.00;91.80;;;;;;5003269;28;20429;-75
2022/04/27 07:48:32;;;;;;;5.57;1.00;;;11.00;91.70;;;;;;4985654;28;20431;-75
2022/04/27 07:50:59;;;;;;;5.60;1.00;;;11.10;91.50;;;;;;4986662;28;20947;-75
2022/04/27 07:53:25;;;;;;;6.38;1.50;;;11.20;91.80;;;;;;4986810;28;20403;-75
2022/04/27 07:55:51;;;;;;;4.25;1.23;;;11.30;91.90;;;;;;4989314;28;20481;-75
2022/04/27 07:58:16;;;;;;;4.45;1.02;;;11.40;90.70;;;;;;4987388;28;20430;-75
2022/04/27 08:00:42;;;;;;;5.10;1.10;;;11.40;90.90;;;;;;4987903;28;20948;-75
2022/04/27 08:03:07;;;;;;;3.57;1.10;;;11.40;90.90;;;;;;4985794;28;20418;-75
2022/04/27 08:05:33;;;;;;;7.43;1.40;;;11.50;90.90;;;;;;4987695;28;20437;-75
2022/04/27 08:07:59;;;;;;;7.63;1.30;;;11.50;91.30;;;;;;4987405;28;20395;-76
2022/04/27 08:10:24;;;;;;;4.03;1.20;;;11.50;90.50;;;;;;4986460;28;20407;-75
2022/04/27 08:12:50;;;;;;;4.55;1.10;;;11.60;90.20;;;;;;4987221;28;20418;-75
2022/04/27 08:15:24;;;;;;;4.17;1.10;;;11.60;90.30;;;;;;4987164;28;20419;-76
2022/04/27 08:17:59;;;;;;;6.73;1.30;;;11.60;90.30;;;;;;4985549;28;20483;-75
2022/04/27 08:23:20;;;;;;;6.35;1.25;;;11.60;90.00;;;;;;4987106;28;20911;-75
2022/04/27 08:25:47;;;;;;;5.38;1.30;;;11.60;90.30;;;;;;4990664;28;20428;-75
2022/04/27 08:28:13;;;;;;;6.80;1.30;;;11.70;90.30;;;;;;5003905;28;20409;-75
2022/04/27 08:30:41;;;;;;;4.47;1.23;;;11.70;90.10;;;;;;4990111;28;20439;-75
2022/04/27 08:33:07;;;;;;;7.40;1.40;;;11.80;90.00;;;;;;5003811;28;20796;-75
2022/04/27 08:35:33;;;;;;;5.65;1.63;;;11.80;89.50;;;;;;5001896;28;20421;-75
2022/04/27 08:38:00;;;;;;;6.20;1.33;;;11.80;89.60;;;;;;5003461;28;20437;-75
2022/04/27 08:40:26;;;;;;;6.53;1.40;;;11.80;90.10;;;;;;5004640;28;20448;-75
2022/04/27 08:42:53;;;;;;;5.53;1.50;;;11.80;89.20;;;;;;5004846;28;20957;-76
2022/04/27 08:45:19;;;;;;;5.65;1.48;;;11.70;89.90;;;;;;5005191;28;20421;-75
2022/04/27 08:47:50;;;;;;;5.50;1.70;;;11.70;90.20;;;;;;4987294;28;20525;-76
2022/04/27 08:50:18;;;;;;;6.13;1.52;;;11.70;90.30;;;;;;5058056;28;20417;-75
2022/04/27 08:52:44;;;;;;;5.85;1.35;;;11.70;90.20;;;;;;4991946;28;20407;-75
2022/04/27 08:55:11;;;;;;;5.17;1.40;;;11.70;90.50;;;;;;5000894;28;20461;-75
2022/04/27 08:57:37;;;;;;;5.90;1.75;;;11.70;89.90;;;;;;4995174;28;20988;-75
2022/04/27 09:00:08;;;;;;;5.70;1.48;;;11.80;90.30;;;;;;5000340;28;20454;-75
2022/04/27 09:02:35;;;;;;;5.65;1.42;;;11.80;89.70;;;;;;4994153;28;20422;-75
2022/04/27 09:05:11;;;;;;;5.38;1.67;;;11.80;89.20;;;;;;4993467;28;20828;-75
2022/04/27 09:07:44;;;;;;;5.13;1.80;;;11.80;89.40;;;;;;5001576;28;20433;-75
2022/04/27 09:10:12;;;;;;;5.53;1.88;;;11.70;89.60;;;;;;4994813;28;20464;-76
2022/04/27 09:12:57;;;;;;;5.03;1.55;;;11.60;90.20;;;;;;4984491;28;20844;-75
2022/04/27 09:15:25;;;;;;;5.53;1.73;;;11.70;90.60;;;;;;5002019;28;20922;-75
2022/04/27 09:20:47;;;;;;;6.45;1.95;;;11.80;90.40;;;;;;4987807;28;20414;-76
2022/04/27 09:23:39;;;;;;;5.68;1.75;;;11.80;90.30;;;;;;5006652;28;20408;-76
2022/04/27 09:26:22;;;;;;;6.25;2.03;;;11.80;90.40;;;;;;5010777;28;20442;-75
2022/04/27 09:28:49;;;;;;;5.90;1.80;;;11.80;89.60;;;;;;5002540;28;20429;-75
2022/04/27 09:31:26;;;;;;;7.03;1.98;;;11.70;89.90;;;;;;5004975;28;20941;-75
2022/04/27 09:34:01;;;;;;;4.90;1.80;;;11.70;89.20;;;;;;5002688;28;20530;-75
2022/04/27 09:36:28;;;;;;;6.18;1.95;;;11.60;90.20;;;;;;5003530;28;20543;-75
2022/04/27 09:38:56;;;;;;;6.43;1.80;;;11.70;90.40;;;;;;5004787;28;20408;-75
2022/04/27 09:41:39;;;;;;;6.00;2.28;;;11.70;90.50;;;;;;5005053;28;20444;-75
2022/04/27 09:44:04;;;;;;;4.15;1.75;;;11.70;90.10;;;;;;4985228;28;20433;-75
2022/04/27 09:46:30;;;;;;;5.23;1.87;;;11.70;90.40;;;;;;4985988;28;20425;-75
2022/04/27 09:49:02;;;;;;;7.60;2.22;;;11.60;90.70;;;;;;4985534;28;20419;-75
2022/04/27 09:51:28;;;;;;;9.02;2.10;;;11.70;90.90;;;;;;4984899;28;20415;-75
2022/04/27 09:53:56;;;;;;;8.68;2.50;;;11.70;91.20;;;;;;4985286;28;20806;-75
2022/04/27 09:56:28;;;;;;;8.95;2.22;;;11.70;91.50;;;;;;5085948;28;20441;-75
2022/04/27 09:58:57;;;;;;;7.83;2.00;;;11.70;91.70;;;;;;5001522;28;20797;-75
2022/04/27 10:01:24;;;;;;;9.90;2.22;;;11.60;91.40;;;;;;5000722;28;20431;-75
2022/04/27 10:03:56;;;;;;;9.77;2.58;;;11.60;91.60;;;;;;5003031;28;20452;-75
2022/04/27 10:06:23;;;;;;;9.45;2.42;;;11.50;92.30;;;;;;5004512;28;20415;-75
2022/04/27 10:08:51;;;;;;;10.15;2.20;;;11.40;92.60;;;;;;4994691;28;20429;-75
2022/04/27 10:11:19;;;;;;;11.32;2.60;;;11.40;92.50;;;;;;4996588;28;20759;-75
2022/04/27 10:13:45;;;;;;;10.23;2.33;;;11.30;93.00;;;;;;5003090;28;20982;-75
2022/04/27 10:16:11;;;;;;;10.55;2.20;;;11.30;93.50;;;;;;5004290;28;20417;-75
2022/04/27 10:18:37;;;;;;;12.20;2.58;;;11.30;93.10;;;;;;4987874;28;20830;-75
2022/04/27 10:21:04;;;;;;;9.95;2.25;;;11.30;93.50;;;;;;4984147;28;20414;-75
2022/04/27 10:23:33;;;;;;;11.85;2.35;;;11.30;93.40;;;;;;4982629;28;20509;-75
2022/04/27 10:26:11;;;;;;;10.70;1.83;;;11.40;93.20;;;;;;4981781;28;20410;-75
2022/04/27 10:28:49;;;;;;;9.00;2.20;;;11.40;92.80;;;;;;5051179;28;20489;-75
2022/04/27 10:31:40;;;;;;;9.02;2.00;;;11.30;92.70;;;;;;4978478;28;20778;-75
2022/04/27 10:34:26;;;;;;;10.07;2.22;;;11.40;93.10;;;;;;4985237;28;20495;-75
2022/04/27 10:36:53;;;;;;;8.55;2.00;;;11.40;93.00;;;;;;4968887;28;20436;-75
2022/04/27 10:39:27;;;;;;;10.23;2.25;;;11.50;93.00;;;;;;4986340;28;20411;-75
2022/04/27 10:42:03;;;;;;;11.77;2.20;;;11.60;93.20;;;;;;4986073;28;20780;-75
2022/04/27 10:44:58;;;;;;;10.10;2.30;;;11.60;92.90;;;;;;4986015;28;20429;-75
2022/04/27 10:47:24;;;;;;;10.98;2.40;;;11.70;92.60;;;;;;4985012;28;20427;-75
2022/04/27 10:50:09;;;;;;;8.60;2.15;;;11.70;92.00;;;;;;4986438;28;20460;-75
2022/04/27 10:52:53;;;;;;;9.53;2.10;;;11.70;91.80;;;;;;5063404;28;20446;-75
2022/04/27 10:55:43;;;;;;;10.37;2.50;;;11.80;92.30;;;;;;4984661;28;20427;-75
2022/04/27 10:58:30;;;;;;;11.32;2.17;;;11.90;92.10;;;;;;4984704;28;20521;-75
2022/04/27 11:01:01;;;;;;;10.68;2.30;;;12.00;92.20;;;;;;5080649;28;20412;-75
2022/04/27 11:03:27;;;;;;;10.27;2.40;;;12.10;92.20;;;;;;4968290;28;20943;-75
2022/04/27 11:05:56;;;;;;;9.10;2.20;;;12.10;91.70;;;;;;4982501;28;20417;-75
2022/04/27 11:08:38;;;;;;;10.13;2.50;;;12.20;91.80;;;;;;4986676;28;20504;-75
2022/04/27 11:11:06;;;;;;;11.85;2.50;;;12.30;91.90;;;;;;4987714;28;20411;-75
2022/04/27 11:13:34;;;;;;;9.68;2.28;;;12.40;91.60;;;;;;4985167;28;20429;-75
2022/04/27 11:16:10;;;;;;;10.55;2.10;;;12.50;91.80;;;;;;4984646;28;20422;-75
2022/04/27 11:18:56;;;;;;;9.43;2.40;;;12.50;91.50;;;;;;4981871;28;20419;-75
2022/04/27 11:21:24;;;;;;;9.88;2.22;;;12.60;91.20;;;;;;4982897;28;20712;-75
2022/04/27 11:23:51;;;;;;;9.38;2.42;;;12.60;91.80;;;;;;4985869;28;20799;-76
2022/04/27 11:26:17;;;;;;;8.98;2.70;;;12.50;92.10;;;;;;4985384;28;20510;-75
2022/04/27 11:28:44;;;;;;;9.50;2.10;;;12.50;92.20;;;;;;5025564;28;20438;-75
2022/04/27 11:31:11;;;;;;;10.67;2.30;;;12.40;92.10;;;;;;5005741;28;20428;-75
2022/04/27 11:33:40;;;;;;;10.13;2.42;;;12.40;92.20;;;;;;5009781;28;21304;-75
2022/04/27 11:36:07;;;;;;;13.55;2.28;;;12.30;92.20;;;;;;5027422;28;20432;-75
2022/04/27 11:38:35;;;;;;;6.95;1.98;;;12.30;92.60;;;;;;5021551;28;20428;-76
2022/04/27 11:41:02;;;;;;;10.70;2.50;;;12.20;92.40;;;;;;5088327;28;20406;-75
2022/04/27 11:43:33;;;;;;;10.70;2.00;;;12.20;92.50;;;;;;5035110;28;20512;-75
2022/04/27 11:45:59;;;;;;;9.07;2.13;;;12.10;92.50;;;;;;5006818;28;20405;-75
2022/04/27 11:48:29;;;;;;;8.83;2.27;;;12.10;92.60;;;;;;4994216;28;20472;-75
2022/04/27 11:50:57;;;;;;;10.27;2.03;;;12.10;92.70;;;;;;5009751;28;20876;-75
2022/04/27 11:53:23;;;;;;;9.32;1.90;;;12.10;92.90;;;;;;5089171;28;20413;-75
2022/04/27 11:55:51;;;;;;;8.63;2.65;;;12.00;92.90;;;;;;5089935;28;20394;-75
2022/04/27 11:58:25;;;;;;;9.17;2.23;;;12.00;92.80;;;;;;5088271;28;21117;-75
2022/04/27 12:01:01;;;;;;;9.18;2.13;;;12.00;93.00;;;;;;5089888;28;20481;-75
2022/04/27 12:03:30;;;;;;;11.50;2.10;;;12.00;93.10;;;;;;4976864;28;20963;-76
2022/04/27 12:05:56;;;;;;;7.80;2.05;;;12.00;93.30;;;;;;4967943;28;20423;-75
2022/04/27 12:08:23;;;;;;;9.15;2.20;;;12.00;93.20;;;;;;5012690;28;20398;-75
2022/04/27 12:10:49;;;;;;;7.88;2.05;;;12.10;93.50;;;;;;5089609;28;20463;-75
2022/04/27 12:13:17;;;;;;;10.80;2.10;;;12.10;93.10;;;;;;5017896;28;21015;-75
2022/04/27 12:15:45;;;;;;;11.37;2.30;;;12.10;93.30;;;;;;5005016;28;20425;-76
2022/04/27 12:18:18;;;;;;;9.88;2.13;;;12.20;93.10;;;;;;5006475;28;20433;-76
2022/04/27 12:20:45;;;;;;;7.93;1.92;;;12.20;92.90;;;;;;5006872;28;20776;-76
2022/04/27 12:23:16;;;;;;;10.27;2.50;;;12.30;92.90;;;;;;5002551;28;20457;-76
2022/04/27 12:25:55;;;;;;;9.15;1.80;;;12.40;92.80;;;;;;5006619;28;20551;-76
2022/04/27 12:28:58;;;;;;;9.93;1.83;;;12.40;92.60;;;;;;5003656;28;20441;-76
2022/04/27 12:31:27;;;;;;;7.72;1.88;;;12.40;92.50;;;;;;5049341;28;20420;-76
2022/04/27 12:33:55;;;;;;;10.70;2.37;;;12.50;92.50;;;;;;5008995;28;20440;-75
2022/04/27 12:39:25;;;;;;;10.20;1.77;;;12.60;92.40;;;;;;5006366;28;20475;-76
2022/04/27 12:42:04;;;;;;;7.40;1.60;;;12.60;92.40;;;;;;5014890;28;20766;-76
2022/04/27 12:44:41;;;;;;;8.50;1.80;;;12.70;92.40;;;;;;5047860;28;20819;-76
2022/04/27 12:47:07;;;;;;;10.57;2.33;;;12.80;92.30;;;;;;5005191;28;20417;-76
2022/04/27 12:49:38;;;;;;;7.93;1.85;;;12.70;92.40;;;;;;5006114;28;20419;-76
2022/04/27 12:52:18;;;;;;;10.50;1.80;;;12.70;92.50;;;;;;5003785;28;20957;-76
2022/04/27 12:54:44;;;;;;;8.38;1.70;;;12.70;92.00;;;;;;5004280;28;20425;-76
2022/04/27 12:57:10;;;;;;;9.13;2.20;;;12.60;92.10;;;;;;5005556;28;20543;-76
2022/04/27 12:59:56;;;;;;;8.98;2.05;;;12.50;92.30;;;;;;5004666;28;20569;-76
2022/04/27 13:02:22;;;;;;;9.07;2.17;;;12.50;92.80;;;;;;5006025;28;20473;-76
2022/04/27 13:04:48;;;;;;;11.15;2.10;;;12.50;92.40;;;;;;5006040;28;20484;-76
2022/04/27 13:07:13;;;;;;;7.65;1.63;;;12.50;92.10;;;;;;4999277;28;20426;-76
2022/04/27 13:12:32;;;;;;;10.02;1.90;;;12.50;91.50;;;;;;5005611;28;20499;-76
2022/04/27 13:14:58;;;;;;;8.43;2.00;;;12.50;91.60;;;;;;5005547;28;20475;-76